sensor_id;sensor_type;location;lat;lon;timestamp;P1;durP1;ratioP1;P2;durP2;ratioP2
70253;SDS011;57649;42.968;1.608;2023-08-24T00:02:00;5.30;;;2.20;;
70253;SDS011;57649;42.968;1.608;2023-08-24T00:04:25;4.88;;;2.47;;
70253;SDS011;57649;42.968;1.608;2023-08-24T00:06:51;6.22;;;2.53;;
70253;SDS011;57649;42.968;1.608;2023-08-24T00:09:16;5.78;;;2.53;;
70253;SDS011;57649;42.968;1.608;2023-08-24T00:11:42;3.47;;;2.13;;
70253;SDS011;57649;42.968;1.608;2023-08-24T00:14:07;6.82;;;2.58;;
70253;SDS011;57649;42.968;1.608;2023-08-24T00:16:34;4.45;;;1.90;;
70253;SDS011;57649;42.968;1.608;2023-08-24T00:18:59;6.82;;;2.13;;
70253;SDS011;57649;42.968;1.608;2023-08-24T00:21:24;4.70;;;2.40;;
70253;SDS011;57649;42.968;1.608;2023-08-24T00:23:50;7.00;;;2.40;;
70253;SDS011;57649;42.968;1.608;2023-08-24T00:26:15;4.13;;;2.40;;
70253;SDS011;57649;42.968;1.608;2023-08-24T00:28:44;3.67;;;2.15;;
70253;SDS011;57649;42.968;1.608;2023-08-24T00:31:09;4.70;;;2.30;;
70253;SDS011;57649;42.968;1.608;2023-08-24T00:33:34;4.68;;;2.40;;
70253;SDS011;57649;42.968;1.608;2023-08-24T00:36:00;3.85;;;2.03;;
70253;SDS011;57649;42.968;1.608;2023-08-24T00:38:26;5.10;;;2.25;;
70253;SDS011;57649;42.968;1.608;2023-08-24T00:40:52;5.40;;;2.13;;
70253;SDS011;57649;42.968;1.608;2023-08-24T00:43:18;5.53;;;1.88;;
70253;SDS011;57649;42.968;1.608;2023-08-24T00:45:48;7.38;;;2.05;;
70253;SDS011;57649;42.968;1.608;2023-08-24T00:48:15;4.45;;;2.22;;
70253;SDS011;57649;42.968;1.608;2023-08-24T00:50:40;5.53;;;1.80;;
70253;SDS011;57649;42.968;1.608;2023-08-24T00:53:05;4.25;;;2.50;;
70253;SDS011;57649;42.968;1.608;2023-08-24T00:55:31;8.82;;;2.50;;
70253;SDS011;57649;42.968;1.608;2023-08-24T00:57:56;3.80;;;2.10;;
70253;SDS011;57649;42.968;1.608;2023-08-24T01:00:22;3.97;;;2.42;;
70253;SDS011;57649;42.968;1.608;2023-08-24T01:02:48;4.55;;;2.28;;
70253;SDS011;57649;42.968;1.608;2023-08-24T01:05:13;6.85;;;2.45;;
70253;SDS011;57649;42.968;1.608;2023-08-24T01:07:39;6.60;;;2.33;;
70253;SDS011;57649;42.968;1.608;2023-08-24T01:10:05;4.47;;;2.35;;
70253;SDS011;57649;42.968;1.608;2023-08-24T01:15:17;5.95;;;2.15;;
70253;SDS011;57649;42.968;1.608;2023-08-24T01:17:48;9.10;;;2.15;;
70253;SDS011;57649;42.968;1.608;2023-08-24T01:20:15;3.20;;;2.15;;
70253;SDS011;57649;42.968;1.608;2023-08-24T01:22:55;6.43;;;2.35;;
70253;SDS011;57649;42.968;1.608;2023-08-24T01:28:02;4.68;;;2.10;;
70253;SDS011;57649;42.968;1.608;2023-08-24T01:30:30;7.65;;;2.53;;
70253;SDS011;57649;42.968;1.608;2023-08-24T01:32:56;6.18;;;2.88;;
70253;SDS011;57649;42.968;1.608;2023-08-24T01:35:21;3.97;;;2.72;;
70253;SDS011;57649;42.968;1.608;2023-08-24T01:37:47;4.20;;;2.53;;
70253;SDS011;57649;42.968;1.608;2023-08-24T01:45:24;4.28;;;2.45;;
70253;SDS011;57649;42.968;1.608;2023-08-24T01:47:54;4.07;;;2.45;;
70253;SDS011;57649;42.968;1.608;2023-08-24T01:50:21;4.07;;;2.58;;
70253;SDS011;57649;42.968;1.608;2023-08-24T01:52:47;5.95;;;2.40;;
70253;SDS011;57649;42.968;1.608;2023-08-24T01:55:13;3.10;;;2.17;;
70253;SDS011;57649;42.968;1.608;2023-08-24T01:57:40;6.18;;;2.30;;
70253;SDS011;57649;42.968;1.608;2023-08-24T02:00:05;5.20;;;2.75;;
70253;SDS011;57649;42.968;1.608;2023-08-24T02:02:32;4.30;;;2.15;;
70253;SDS011;57649;42.968;1.608;2023-08-24T02:05:00;5.47;;;2.23;;
70253;SDS011;57649;42.968;1.608;2023-08-24T02:07:26;3.67;;;2.30;;
70253;SDS011;57649;42.968;1.608;2023-08-24T02:09:51;5.80;;;2.70;;
70253;SDS011;57649;42.968;1.608;2023-08-24T02:12:16;5.57;;;2.40;;
70253;SDS011;57649;42.968;1.608;2023-08-24T02:14:42;4.32;;;2.30;;
70253;SDS011;57649;42.968;1.608;2023-08-24T02:17:07;4.00;;;2.40;;
70253;SDS011;57649;42.968;1.608;2023-08-24T02:19:33;4.25;;;2.53;;
70253;SDS011;57649;42.968;1.608;2023-08-24T02:21:59;4.40;;;2.58;;
70253;SDS011;57649;42.968;1.608;2023-08-24T02:24:24;4.82;;;2.60;;
70253;SDS011;57649;42.968;1.608;2023-08-24T02:26:50;3.83;;;2.25;;
70253;SDS011;57649;42.968;1.608;2023-08-24T02:29:15;4.30;;;2.50;;
70253;SDS011;57649;42.968;1.608;2023-08-24T02:31:40;4.13;;;2.45;;
70253;SDS011;57649;42.968;1.608;2023-08-24T02:34:06;5.40;;;2.60;;
70253;SDS011;57649;42.968;1.608;2023-08-24T02:36:31;7.40;;;2.72;;
70253;SDS011;57649;42.968;1.608;2023-08-24T02:38:58;5.78;;;2.13;;
70253;SDS011;57649;42.968;1.608;2023-08-24T02:41:27;4.60;;;2.22;;
70253;SDS011;57649;42.968;1.608;2023-08-24T02:43:52;3.72;;;2.45;;
70253;SDS011;57649;42.968;1.608;2023-08-24T02:46:18;6.88;;;2.50;;
70253;SDS011;57649;42.968;1.608;2023-08-24T02:48:44;5.88;;;2.47;;
70253;SDS011;57649;42.968;1.608;2023-08-24T02:51:09;3.17;;;2.30;;
70253;SDS011;57649;42.968;1.608;2023-08-24T02:53:36;6.35;;;2.65;;
70253;SDS011;57649;42.968;1.608;2023-08-24T02:56:02;14.20;;;12.15;;
70253;SDS011;57649;42.968;1.608;2023-08-24T02:58:27;23.23;;;19.15;;
70253;SDS011;57649;42.968;1.608;2023-08-24T03:00:53;11.85;;;9.05;;
70253;SDS011;57649;42.968;1.608;2023-08-24T03:03:19;7.50;;;4.25;;
70253;SDS011;57649;42.968;1.608;2023-08-24T03:05:54;6.80;;;3.03;;
70253;SDS011;57649;42.968;1.608;2023-08-24T03:08:23;6.18;;;2.60;;
70253;SDS011;57649;42.968;1.608;2023-08-24T03:10:49;4.68;;;2.42;;
70253;SDS011;57649;42.968;1.608;2023-08-24T03:13:15;4.80;;;2.58;;
70253;SDS011;57649;42.968;1.608;2023-08-24T03:15:40;9.05;;;2.75;;
70253;SDS011;57649;42.968;1.608;2023-08-24T03:18:06;3.58;;;2.50;;
70253;SDS011;57649;42.968;1.608;2023-08-24T03:20:31;7.22;;;2.58;;
70253;SDS011;57649;42.968;1.608;2023-08-24T03:22:57;4.68;;;2.70;;
70253;SDS011;57649;42.968;1.608;2023-08-24T03:25:22;4.53;;;2.40;;
70253;SDS011;57649;42.968;1.608;2023-08-24T03:27:48;4.03;;;2.35;;
70253;SDS011;57649;42.968;1.608;2023-08-24T03:30:13;6.75;;;2.63;;
70253;SDS011;57649;42.968;1.608;2023-08-24T03:32:39;8.43;;;2.92;;
70253;SDS011;57649;42.968;1.608;2023-08-24T03:35:05;6.90;;;2.30;;
70253;SDS011;57649;42.968;1.608;2023-08-24T03:37:31;6.82;;;2.50;;
70253;SDS011;57649;42.968;1.608;2023-08-24T03:39:57;7.03;;;2.60;;
70253;SDS011;57649;42.968;1.608;2023-08-24T03:42:22;4.63;;;2.35;;
70253;SDS011;57649;42.968;1.608;2023-08-24T03:44:48;5.32;;;2.42;;
70253;SDS011;57649;42.968;1.608;2023-08-24T03:47:14;6.88;;;2.58;;
70253;SDS011;57649;42.968;1.608;2023-08-24T03:49:41;4.60;;;2.78;;
70253;SDS011;57649;42.968;1.608;2023-08-24T03:52:08;3.90;;;2.60;;
70253;SDS011;57649;42.968;1.608;2023-08-24T03:54:33;4.35;;;2.50;;
70253;SDS011;57649;42.968;1.608;2023-08-24T03:56:58;5.70;;;2.55;;
70253;SDS011;57649;42.968;1.608;2023-08-24T03:59:24;3.80;;;2.60;;
70253;SDS011;57649;42.968;1.608;2023-08-24T04:01:49;5.47;;;2.67;;
70253;SDS011;57649;42.968;1.608;2023-08-24T04:04:14;5.35;;;2.60;;
70253;SDS011;57649;42.968;1.608;2023-08-24T04:06:40;9.40;;;3.25;;
70253;SDS011;57649;42.968;1.608;2023-08-24T04:09:05;4.45;;;2.70;;
70253;SDS011;57649;42.968;1.608;2023-08-24T04:11:31;5.55;;;2.50;;
70253;SDS011;57649;42.968;1.608;2023-08-24T04:13:56;7.28;;;2.67;;
70253;SDS011;57649;42.968;1.608;2023-08-24T04:16:22;6.53;;;2.80;;
70253;SDS011;57649;42.968;1.608;2023-08-24T04:18:47;3.55;;;2.50;;
70253;SDS011;57649;42.968;1.608;2023-08-24T04:21:13;6.82;;;3.00;;
70253;SDS011;57649;42.968;1.608;2023-08-24T04:23:38;5.03;;;2.35;;
70253;SDS011;57649;42.968;1.608;2023-08-24T04:26:09;6.30;;;2.90;;
70253;SDS011;57649;42.968;1.608;2023-08-24T04:28:35;12.23;;;3.10;;
70253;SDS011;57649;42.968;1.608;2023-08-24T04:31:00;6.32;;;3.35;;
70253;SDS011;57649;42.968;1.608;2023-08-24T04:33:26;6.72;;;2.88;;
70253;SDS011;57649;42.968;1.608;2023-08-24T04:35:52;6.82;;;2.75;;
70253;SDS011;57649;42.968;1.608;2023-08-24T04:38:17;7.80;;;2.80;;
70253;SDS011;57649;42.968;1.608;2023-08-24T04:40:52;7.28;;;2.88;;
70253;SDS011;57649;42.968;1.608;2023-08-24T04:43:19;5.63;;;2.55;;
70253;SDS011;57649;42.968;1.608;2023-08-24T04:45:47;8.00;;;2.70;;
70253;SDS011;57649;42.968;1.608;2023-08-24T04:48:17;6.15;;;2.67;;
70253;SDS011;57649;42.968;1.608;2023-08-24T04:50:43;4.38;;;2.78;;
70253;SDS011;57649;42.968;1.608;2023-08-24T04:53:09;6.90;;;2.70;;
70253;SDS011;57649;42.968;1.608;2023-08-24T04:55:35;7.80;;;2.70;;
70253;SDS011;57649;42.968;1.608;2023-08-24T04:58:00;6.13;;;3.08;;
70253;SDS011;57649;42.968;1.608;2023-08-24T05:00:26;4.82;;;2.58;;
70253;SDS011;57649;42.968;1.608;2023-08-24T05:02:51;6.25;;;2.78;;
70253;SDS011;57649;42.968;1.608;2023-08-24T05:05:17;5.80;;;3.42;;
70253;SDS011;57649;42.968;1.608;2023-08-24T05:07:42;8.52;;;3.30;;
70253;SDS011;57649;42.968;1.608;2023-08-24T05:10:08;11.02;;;5.40;;
70253;SDS011;57649;42.968;1.608;2023-08-24T05:12:33;7.72;;;5.28;;
70253;SDS011;57649;42.968;1.608;2023-08-24T05:15:03;5.72;;;3.92;;
70253;SDS011;57649;42.968;1.608;2023-08-24T05:17:29;5.45;;;3.38;;
70253;SDS011;57649;42.968;1.608;2023-08-24T05:19:58;5.03;;;3.25;;
70253;SDS011;57649;42.968;1.608;2023-08-24T05:22:24;5.53;;;3.38;;
70253;SDS011;57649;42.968;1.608;2023-08-24T05:24:49;6.38;;;3.60;;
70253;SDS011;57649;42.968;1.608;2023-08-24T05:27:14;7.78;;;3.42;;
70253;SDS011;57649;42.968;1.608;2023-08-24T05:29:40;6.07;;;3.25;;
70253;SDS011;57649;42.968;1.608;2023-08-24T05:32:06;7.80;;;3.03;;
70253;SDS011;57649;42.968;1.608;2023-08-24T05:34:31;6.70;;;3.22;;
70253;SDS011;57649;42.968;1.608;2023-08-24T05:36:57;5.57;;;3.03;;
70253;SDS011;57649;42.968;1.608;2023-08-24T05:39:22;7.50;;;3.35;;
70253;SDS011;57649;42.968;1.608;2023-08-24T05:41:51;6.13;;;3.25;;
70253;SDS011;57649;42.968;1.608;2023-08-24T05:44:17;5.70;;;3.40;;
70253;SDS011;57649;42.968;1.608;2023-08-24T05:46:46;6.40;;;3.17;;
70253;SDS011;57649;42.968;1.608;2023-08-24T05:49:12;6.63;;;3.40;;
70253;SDS011;57649;42.968;1.608;2023-08-24T05:51:38;7.35;;;3.20;;
70253;SDS011;57649;42.968;1.608;2023-08-24T05:54:03;5.32;;;3.28;;
70253;SDS011;57649;42.968;1.608;2023-08-24T05:56:29;9.93;;;3.65;;
70253;SDS011;57649;42.968;1.608;2023-08-24T05:58:55;6.63;;;2.78;;
70253;SDS011;57649;42.968;1.608;2023-08-24T06:01:22;5.70;;;2.90;;
70253;SDS011;57649;42.968;1.608;2023-08-24T06:03:48;6.20;;;3.92;;
70253;SDS011;57649;42.968;1.608;2023-08-24T06:06:14;7.28;;;3.22;;
70253;SDS011;57649;42.968;1.608;2023-08-24T06:08:40;7.53;;;3.08;;
70253;SDS011;57649;42.968;1.608;2023-08-24T06:11:05;9.10;;;2.85;;
70253;SDS011;57649;42.968;1.608;2023-08-24T06:13:31;4.70;;;3.28;;
70253;SDS011;57649;42.968;1.608;2023-08-24T06:15:57;7.18;;;3.00;;
70253;SDS011;57649;42.968;1.608;2023-08-24T06:18:22;6.68;;;3.33;;
70253;SDS011;57649;42.968;1.608;2023-08-24T06:20:48;12.82;;;3.30;;
70253;SDS011;57649;42.968;1.608;2023-08-24T06:23:16;8.47;;;3.60;;
70253;SDS011;57649;42.968;1.608;2023-08-24T06:25:42;9.88;;;3.33;;
70253;SDS011;57649;42.968;1.608;2023-08-24T06:28:08;11.20;;;3.00;;
70253;SDS011;57649;42.968;1.608;2023-08-24T06:30:40;7.88;;;3.63;;
70253;SDS011;57649;42.968;1.608;2023-08-24T06:33:08;5.72;;;2.97;;
70253;SDS011;57649;42.968;1.608;2023-08-24T06:35:34;8.27;;;3.25;;
70253;SDS011;57649;42.968;1.608;2023-08-24T06:38:00;6.03;;;3.55;;
70253;SDS011;57649;42.968;1.608;2023-08-24T06:40:25;8.48;;;2.97;;
70253;SDS011;57649;42.968;1.608;2023-08-24T06:42:51;6.25;;;3.33;;
70253;SDS011;57649;42.968;1.608;2023-08-24T06:45:16;7.85;;;3.13;;
70253;SDS011;57649;42.968;1.608;2023-08-24T06:47:43;8.52;;;3.38;;
70253;SDS011;57649;42.968;1.608;2023-08-24T06:50:09;9.20;;;3.58;;
70253;SDS011;57649;42.968;1.608;2023-08-24T06:52:35;5.57;;;3.20;;
70253;SDS011;57649;42.968;1.608;2023-08-24T06:55:00;7.93;;;3.28;;
70253;SDS011;57649;42.968;1.608;2023-08-24T06:57:26;8.05;;;3.30;;
70253;SDS011;57649;42.968;1.608;2023-08-24T06:59:52;12.60;;;3.45;;
70253;SDS011;57649;42.968;1.608;2023-08-24T07:02:17;8.20;;;3.60;;
70253;SDS011;57649;42.968;1.608;2023-08-24T07:04:43;7.30;;;3.83;;
70253;SDS011;57649;42.968;1.608;2023-08-24T07:07:09;9.90;;;3.20;;
70253;SDS011;57649;42.968;1.608;2023-08-24T07:09:34;8.00;;;3.05;;
70253;SDS011;57649;42.968;1.608;2023-08-24T07:12:00;7.35;;;3.25;;
70253;SDS011;57649;42.968;1.608;2023-08-24T07:14:32;9.02;;;3.80;;
70253;SDS011;57649;42.968;1.608;2023-08-24T07:16:57;8.05;;;3.88;;
70253;SDS011;57649;42.968;1.608;2023-08-24T07:19:23;11.23;;;9.32;;
70253;SDS011;57649;42.968;1.608;2023-08-24T07:21:48;7.18;;;4.68;;
70253;SDS011;57649;42.968;1.608;2023-08-24T07:24:13;9.07;;;4.00;;
70253;SDS011;57649;42.968;1.608;2023-08-24T07:26:40;7.03;;;3.50;;
70253;SDS011;57649;42.968;1.608;2023-08-24T07:29:07;7.80;;;2.90;;
70253;SDS011;57649;42.968;1.608;2023-08-24T07:31:32;8.40;;;3.42;;
70253;SDS011;57649;42.968;1.608;2023-08-24T07:33:58;8.30;;;3.45;;
70253;SDS011;57649;42.968;1.608;2023-08-24T07:36:23;6.85;;;3.08;;
70253;SDS011;57649;42.968;1.608;2023-08-24T07:38:49;8.23;;;2.97;;
70253;SDS011;57649;42.968;1.608;2023-08-24T07:41:14;6.57;;;3.17;;
70253;SDS011;57649;42.968;1.608;2023-08-24T07:43:42;6.63;;;3.55;;
70253;SDS011;57649;42.968;1.608;2023-08-24T07:46:07;8.13;;;3.22;;
70253;SDS011;57649;42.968;1.608;2023-08-24T07:48:33;7.50;;;3.00;;
70253;SDS011;57649;42.968;1.608;2023-08-24T07:50:58;10.57;;;3.00;;
70253;SDS011;57649;42.968;1.608;2023-08-24T07:53:24;6.32;;;3.03;;
70253;SDS011;57649;42.968;1.608;2023-08-24T07:55:49;9.38;;;3.67;;
70253;SDS011;57649;42.968;1.608;2023-08-24T07:58:14;7.38;;;2.88;;
70253;SDS011;57649;42.968;1.608;2023-08-24T08:00:40;6.20;;;3.00;;
70253;SDS011;57649;42.968;1.608;2023-08-24T08:03:05;6.95;;;3.75;;
70253;SDS011;57649;42.968;1.608;2023-08-24T08:05:31;8.02;;;3.13;;
70253;SDS011;57649;42.968;1.608;2023-08-24T08:07:57;5.47;;;3.35;;
70253;SDS011;57649;42.968;1.608;2023-08-24T08:10:22;11.25;;;3.25;;
70253;SDS011;57649;42.968;1.608;2023-08-24T08:12:48;6.10;;;3.15;;
70253;SDS011;57649;42.968;1.608;2023-08-24T08:15:13;8.80;;;2.88;;
70253;SDS011;57649;42.968;1.608;2023-08-24T08:17:38;7.60;;;2.95;;
70253;SDS011;57649;42.968;1.608;2023-08-24T08:20:04;6.13;;;2.78;;
70253;SDS011;57649;42.968;1.608;2023-08-24T08:22:30;10.07;;;3.53;;
70253;SDS011;57649;42.968;1.608;2023-08-24T08:25:00;6.80;;;3.05;;
70253;SDS011;57649;42.968;1.608;2023-08-24T08:27:26;5.32;;;2.60;;
70253;SDS011;57649;42.968;1.608;2023-08-24T08:29:52;8.07;;;2.70;;
70253;SDS011;57649;42.968;1.608;2023-08-24T08:32:17;7.32;;;3.00;;
70253;SDS011;57649;42.968;1.608;2023-08-24T08:34:43;11.80;;;3.10;;
70253;SDS011;57649;42.968;1.608;2023-08-24T08:37:08;6.60;;;2.95;;
70253;SDS011;57649;42.968;1.608;2023-08-24T08:39:34;5.60;;;2.85;;
70253;SDS011;57649;42.968;1.608;2023-08-24T08:41:59;6.60;;;2.80;;
70253;SDS011;57649;42.968;1.608;2023-08-24T08:44:26;5.22;;;2.85;;
70253;SDS011;57649;42.968;1.608;2023-08-24T08:46:57;9.82;;;3.72;;
70253;SDS011;57649;42.968;1.608;2023-08-24T08:49:22;10.25;;;3.53;;
70253;SDS011;57649;42.968;1.608;2023-08-24T08:51:48;7.03;;;4.20;;
70253;SDS011;57649;42.968;1.608;2023-08-24T08:54:14;11.95;;;4.68;;
70253;SDS011;57649;42.968;1.608;2023-08-24T08:56:40;7.97;;;4.45;;
70253;SDS011;57649;42.968;1.608;2023-08-24T08:59:07;9.80;;;4.13;;
70253;SDS011;57649;42.968;1.608;2023-08-24T09:01:34;9.52;;;4.07;;
70253;SDS011;57649;42.968;1.608;2023-08-24T09:03:59;11.57;;;4.57;;
70253;SDS011;57649;42.968;1.608;2023-08-24T09:06:25;12.93;;;3.90;;
70253;SDS011;57649;42.968;1.608;2023-08-24T09:08:51;9.63;;;3.35;;
70253;SDS011;57649;42.968;1.608;2023-08-24T09:11:17;9.18;;;3.83;;
70253;SDS011;57649;42.968;1.608;2023-08-24T09:13:44;6.25;;;3.30;;
70253;SDS011;57649;42.968;1.608;2023-08-24T09:16:10;9.88;;;3.30;;
70253;SDS011;57649;42.968;1.608;2023-08-24T09:18:41;7.47;;;3.42;;
70253;SDS011;57649;42.968;1.608;2023-08-24T09:21:08;6.15;;;2.97;;
70253;SDS011;57649;42.968;1.608;2023-08-24T09:23:35;7.25;;;3.03;;
70253;SDS011;57649;42.968;1.608;2023-08-24T09:26:01;5.50;;;2.67;;
70253;SDS011;57649;42.968;1.608;2023-08-24T09:28:26;6.47;;;2.60;;
70253;SDS011;57649;42.968;1.608;2023-08-24T09:30:54;8.63;;;2.50;;
70253;SDS011;57649;42.968;1.608;2023-08-24T09:33:20;5.57;;;2.80;;
70253;SDS011;57649;42.968;1.608;2023-08-24T09:35:51;9.25;;;3.17;;
70253;SDS011;57649;42.968;1.608;2023-08-24T09:38:19;6.32;;;2.60;;
70253;SDS011;57649;42.968;1.608;2023-08-24T09:40:47;6.80;;;2.40;;
70253;SDS011;57649;42.968;1.608;2023-08-24T09:43:18;5.18;;;2.55;;
70253;SDS011;57649;42.968;1.608;2023-08-24T09:45:50;5.35;;;2.47;;
70253;SDS011;57649;42.968;1.608;2023-08-24T09:48:16;5.40;;;2.50;;
70253;SDS011;57649;42.968;1.608;2023-08-24T09:50:44;7.65;;;4.05;;
70253;SDS011;57649;42.968;1.608;2023-08-24T09:53:13;8.90;;;2.75;;
70253;SDS011;57649;42.968;1.608;2023-08-24T09:55:44;7.30;;;2.92;;
70253;SDS011;57649;42.968;1.608;2023-08-24T09:58:14;8.77;;;2.85;;
70253;SDS011;57649;42.968;1.608;2023-08-24T10:00:41;9.80;;;3.03;;
70253;SDS011;57649;42.968;1.608;2023-08-24T10:03:09;7.80;;;2.78;;
70253;SDS011;57649;42.968;1.608;2023-08-24T10:05:36;6.80;;;2.67;;
70253;SDS011;57649;42.968;1.608;2023-08-24T10:08:03;8.20;;;2.63;;
70253;SDS011;57649;42.968;1.608;2023-08-24T10:10:29;7.43;;;2.78;;
70253;SDS011;57649;42.968;1.608;2023-08-24T10:12:58;9.52;;;3.40;;
70253;SDS011;57649;42.968;1.608;2023-08-24T10:15:29;5.93;;;2.97;;
70253;SDS011;57649;42.968;1.608;2023-08-24T10:17:55;5.78;;;2.63;;
70253;SDS011;57649;42.968;1.608;2023-08-24T10:20:22;7.22;;;2.67;;
70253;SDS011;57649;42.968;1.608;2023-08-24T10:22:49;4.80;;;2.38;;
70253;SDS011;57649;42.968;1.608;2023-08-24T10:25:16;7.22;;;2.85;;
70253;SDS011;57649;42.968;1.608;2023-08-24T10:27:42;4.65;;;2.55;;
70253;SDS011;57649;42.968;1.608;2023-08-24T10:30:11;5.53;;;2.47;;
70253;SDS011;57649;42.968;1.608;2023-08-24T10:32:37;6.72;;;2.83;;
70253;SDS011;57649;42.968;1.608;2023-08-24T10:35:04;6.05;;;2.50;;
70253;SDS011;57649;42.968;1.608;2023-08-24T10:37:30;9.77;;;2.58;;
70253;SDS011;57649;42.968;1.608;2023-08-24T10:42:24;6.45;;;2.95;;
70253;SDS011;57649;42.968;1.608;2023-08-24T10:44:51;8.50;;;2.80;;
70253;SDS011;57649;42.968;1.608;2023-08-24T10:47:21;6.93;;;2.60;;
70253;SDS011;57649;42.968;1.608;2023-08-24T10:52:20;7.93;;;2.28;;
70253;SDS011;57649;42.968;1.608;2023-08-24T10:54:46;3.58;;;2.20;;
70253;SDS011;57649;42.968;1.608;2023-08-24T10:57:27;6.72;;;2.30;;
70253;SDS011;57649;42.968;1.608;2023-08-24T11:00:02;9.65;;;2.50;;
70253;SDS011;57649;42.968;1.608;2023-08-24T11:05:19;5.32;;;3.17;;
70253;SDS011;57649;42.968;1.608;2023-08-24T11:07:59;9.98;;;2.95;;
70253;SDS011;57649;42.968;1.608;2023-08-24T11:10:30;8.15;;;2.83;;
70253;SDS011;57649;42.968;1.608;2023-08-24T11:15:39;4.68;;;2.95;;
70253;SDS011;57649;42.968;1.608;2023-08-24T11:20:55;4.47;;;2.55;;
70253;SDS011;57649;42.968;1.608;2023-08-24T11:23:22;5.82;;;2.85;;
70253;SDS011;57649;42.968;1.608;2023-08-24T11:25:50;6.00;;;2.75;;
70253;SDS011;57649;42.968;1.608;2023-08-24T11:28:21;11.90;;;3.78;;
70253;SDS011;57649;42.968;1.608;2023-08-24T11:30:48;7.13;;;2.40;;
70253;SDS011;57649;42.968;1.608;2023-08-24T11:33:15;7.85;;;3.15;;
70253;SDS011;57649;42.968;1.608;2023-08-24T11:35:43;7.38;;;2.92;;
70253;SDS011;57649;42.968;1.608;2023-08-24T11:38:10;5.20;;;2.67;;
70253;SDS011;57649;42.968;1.608;2023-08-24T11:40:36;9.35;;;3.45;;
70253;SDS011;57649;42.968;1.608;2023-08-24T11:43:02;7.43;;;3.08;;
70253;SDS011;57649;42.968;1.608;2023-08-24T11:45:31;9.90;;;3.03;;
70253;SDS011;57649;42.968;1.608;2023-08-24T11:47:58;6.35;;;2.92;;
70253;SDS011;57649;42.968;1.608;2023-08-24T11:50:30;7.43;;;2.45;;
70253;SDS011;57649;42.968;1.608;2023-08-24T11:52:57;6.53;;;2.70;;
70253;SDS011;57649;42.968;1.608;2023-08-24T11:55:23;4.97;;;2.67;;
70253;SDS011;57649;42.968;1.608;2023-08-24T11:57:49;7.63;;;2.60;;
70253;SDS011;57649;42.968;1.608;2023-08-24T12:00:15;5.80;;;2.83;;
70253;SDS011;57649;42.968;1.608;2023-08-24T12:02:43;8.48;;;4.30;;
70253;SDS011;57649;42.968;1.608;2023-08-24T12:05:19;6.25;;;2.85;;
70253;SDS011;57649;42.968;1.608;2023-08-24T12:07:46;5.72;;;2.40;;
70253;SDS011;57649;42.968;1.608;2023-08-24T12:10:12;4.95;;;2.60;;
70253;SDS011;57649;42.968;1.608;2023-08-24T12:12:37;9.80;;;2.50;;
70253;SDS011;57649;42.968;1.608;2023-08-24T12:15:03;4.53;;;2.13;;
70253;SDS011;57649;42.968;1.608;2023-08-24T12:17:28;6.20;;;2.97;;
70253;SDS011;57649;42.968;1.608;2023-08-24T12:20:00;11.40;;;3.45;;
70253;SDS011;57649;42.968;1.608;2023-08-24T12:22:31;6.40;;;2.78;;
70253;SDS011;57649;42.968;1.608;2023-08-24T12:24:56;6.90;;;2.58;;
70253;SDS011;57649;42.968;1.608;2023-08-24T12:27:25;7.68;;;2.40;;
70253;SDS011;57649;42.968;1.608;2023-08-24T12:29:52;5.63;;;3.05;;
70253;SDS011;57649;42.968;1.608;2023-08-24T12:32:17;9.00;;;2.47;;
70253;SDS011;57649;42.968;1.608;2023-08-24T12:34:50;4.30;;;2.60;;
70253;SDS011;57649;42.968;1.608;2023-08-24T12:37:19;5.70;;;2.72;;
70253;SDS011;57649;42.968;1.608;2023-08-24T12:39:45;6.63;;;2.72;;
70253;SDS011;57649;42.968;1.608;2023-08-24T12:42:11;4.95;;;2.80;;
70253;SDS011;57649;42.968;1.608;2023-08-24T12:44:36;8.88;;;2.85;;
70253;SDS011;57649;42.968;1.608;2023-08-24T12:47:02;4.55;;;2.55;;
70253;SDS011;57649;42.968;1.608;2023-08-24T12:49:28;6.95;;;2.83;;
70253;SDS011;57649;42.968;1.608;2023-08-24T12:51:53;5.07;;;2.58;;
70253;SDS011;57649;42.968;1.608;2023-08-24T12:54:19;9.13;;;3.53;;
70253;SDS011;57649;42.968;1.608;2023-08-24T12:56:44;5.35;;;2.95;;
70253;SDS011;57649;42.968;1.608;2023-08-24T12:59:09;7.32;;;2.60;;
70253;SDS011;57649;42.968;1.608;2023-08-24T13:01:35;7.57;;;2.65;;
70253;SDS011;57649;42.968;1.608;2023-08-24T13:04:00;7.00;;;2.40;;
70253;SDS011;57649;42.968;1.608;2023-08-24T13:06:26;7.30;;;2.42;;
70253;SDS011;57649;42.968;1.608;2023-08-24T13:08:54;6.45;;;2.38;;
70253;SDS011;57649;42.968;1.608;2023-08-24T13:11:20;5.72;;;2.50;;
70253;SDS011;57649;42.968;1.608;2023-08-24T13:13:47;4.60;;;2.60;;
70253;SDS011;57649;42.968;1.608;2023-08-24T13:16:12;5.40;;;2.70;;
70253;SDS011;57649;42.968;1.608;2023-08-24T13:18:38;5.85;;;2.40;;
70253;SDS011;57649;42.968;1.608;2023-08-24T13:21:03;4.47;;;2.55;;
70253;SDS011;57649;42.968;1.608;2023-08-24T13:23:28;7.05;;;2.67;;
70253;SDS011;57649;42.968;1.608;2023-08-24T13:25:57;7.82;;;2.17;;
70253;SDS011;57649;42.968;1.608;2023-08-24T13:28:23;4.70;;;2.35;;
70253;SDS011;57649;42.968;1.608;2023-08-24T13:30:48;4.63;;;2.50;;
70253;SDS011;57649;42.968;1.608;2023-08-24T13:33:13;6.65;;;2.78;;
70253;SDS011;57649;42.968;1.608;2023-08-24T13:35:40;2.95;;;2.30;;
70253;SDS011;57649;42.968;1.608;2023-08-24T13:38:05;8.85;;;2.70;;
70253;SDS011;57649;42.968;1.608;2023-08-24T13:40:31;7.47;;;2.70;;
70253;SDS011;57649;42.968;1.608;2023-08-24T13:42:56;7.13;;;2.60;;
70253;SDS011;57649;42.968;1.608;2023-08-24T13:45:21;6.47;;;2.58;;
70253;SDS011;57649;42.968;1.608;2023-08-24T13:47:47;5.35;;;2.40;;
70253;SDS011;57649;42.968;1.608;2023-08-24T13:50:12;3.20;;;2.03;;
70253;SDS011;57649;42.968;1.608;2023-08-24T13:52:38;7.22;;;2.38;;
70253;SDS011;57649;42.968;1.608;2023-08-24T13:55:03;7.75;;;2.78;;
70253;SDS011;57649;42.968;1.608;2023-08-24T13:57:29;5.32;;;2.42;;
70253;SDS011;57649;42.968;1.608;2023-08-24T13:59:55;3.17;;;2.20;;
70253;SDS011;57649;42.968;1.608;2023-08-24T14:02:20;7.38;;;2.40;;
70253;SDS011;57649;42.968;1.608;2023-08-24T14:04:46;7.10;;;2.58;;
70253;SDS011;57649;42.968;1.608;2023-08-24T14:07:11;6.55;;;2.40;;
70253;SDS011;57649;42.968;1.608;2023-08-24T14:09:36;9.50;;;2.95;;
70253;SDS011;57649;42.968;1.608;2023-08-24T14:12:02;5.43;;;2.70;;
70253;SDS011;57649;42.968;1.608;2023-08-24T14:14:27;3.95;;;2.50;;
70253;SDS011;57649;42.968;1.608;2023-08-24T14:16:53;5.57;;;2.70;;
70253;SDS011;57649;42.968;1.608;2023-08-24T14:19:20;4.78;;;2.70;;
70253;SDS011;57649;42.968;1.608;2023-08-24T14:21:45;8.45;;;2.90;;
70253;SDS011;57649;42.968;1.608;2023-08-24T14:24:10;6.25;;;2.70;;
70253;SDS011;57649;42.968;1.608;2023-08-24T14:26:36;9.10;;;3.20;;
70253;SDS011;57649;42.968;1.608;2023-08-24T14:29:04;9.93;;;3.10;;
70253;SDS011;57649;42.968;1.608;2023-08-24T14:31:30;5.10;;;2.95;;
70253;SDS011;57649;42.968;1.608;2023-08-24T14:33:56;7.65;;;3.20;;
70253;SDS011;57649;42.968;1.608;2023-08-24T14:36:22;4.90;;;3.00;;
70253;SDS011;57649;42.968;1.608;2023-08-24T14:38:48;5.25;;;3.17;;
70253;SDS011;57649;42.968;1.608;2023-08-24T14:41:14;5.78;;;2.80;;
70253;SDS011;57649;42.968;1.608;2023-08-24T14:43:40;8.18;;;3.72;;
70253;SDS011;57649;42.968;1.608;2023-08-24T14:46:06;7.32;;;3.10;;
70253;SDS011;57649;42.968;1.608;2023-08-24T14:48:32;5.00;;;3.30;;
70253;SDS011;57649;42.968;1.608;2023-08-24T14:50:58;6.15;;;3.38;;
70253;SDS011;57649;42.968;1.608;2023-08-24T14:53:24;5.13;;;2.80;;
70253;SDS011;57649;42.968;1.608;2023-08-24T14:55:52;7.25;;;3.53;;
70253;SDS011;57649;42.968;1.608;2023-08-24T14:58:19;7.17;;;3.50;;
70253;SDS011;57649;42.968;1.608;2023-08-24T15:00:46;9.57;;;3.30;;
70253;SDS011;57649;42.968;1.608;2023-08-24T15:03:12;7.13;;;3.05;;
70253;SDS011;57649;42.968;1.608;2023-08-24T15:05:40;5.88;;;3.30;;
70253;SDS011;57649;42.968;1.608;2023-08-24T15:08:07;6.80;;;3.00;;